createdAt,value
2023-05-06T00:02:04.469Z,98890.88
2023-05-06T00:04:30.870Z,98886.84
2023-05-06T00:06:57.329Z,98889.06
2023-05-06T00:09:23.739Z,98889.38
2023-05-06T00:11:50.068Z,98899.63
2023-05-06T00:14:18.635Z,98897.09
2023-05-06T00:16:45.156Z,98903.56
2023-05-06T00:19:14.078Z,98898.25
2023-05-06T00:21:40.779Z,98897.25
2023-05-06T00:24:07.216Z,98902.44
2023-05-06T00:26:33.632Z,98899.06
2023-05-06T00:28:59.966Z,98896.69
2023-05-06T00:31:26.401Z,98900.75
2023-05-06T00:33:52.876Z,98909.47
2023-05-06T00:36:19.660Z,98903.84
2023-05-06T00:38:46.338Z,98909.50
2023-05-06T00:41:12.722Z,98937.25
2023-05-06T00:43:39.477Z,98979.97
2023-05-06T00:46:08.312Z,98966.78
2023-05-06T00:48:35.825Z,98958.75
2023-05-06T00:51:02.273Z,98960.56
2023-05-06T00:53:28.675Z,98957.19
2023-05-06T00:55:55.009Z,98961.13
2023-05-06T00:58:21.397Z,98949.75
2023-05-06T01:00:48.113Z,98943.16
2023-05-06T01:03:14.683Z,98945.72
2023-05-06T01:05:41.103Z,98953.25
2023-05-06T01:08:07.690Z,98948.09
2023-05-06T01:10:34.238Z,98938.81
2023-05-06T01:13:00.689Z,98937.53
2023-05-06T01:15:27.145Z,98944.84
2023-05-06T01:17:54.109Z,98935.72
2023-05-06T01:20:21.228Z,98942.19
2023-05-06T01:22:47.659Z,98934.72
2023-05-06T01:25:14.138Z,98938.53
2023-05-06T01:27:40.503Z,98936.56
2023-05-06T01:30:08.107Z,98925.03
2023-05-06T01:32:34.485Z,98933.06
2023-05-06T01:35:00.978Z,98935.31
2023-05-06T01:37:27.775Z,98929.28
2023-05-06T01:39:54.246Z,98918.72
2023-05-06T01:42:20.689Z,98928.56
2023-05-06T01:44:47.092Z,98926.19
2023-05-06T01:47:13.457Z,98919.47
2023-05-06T01:49:40.096Z,98923.97
2023-05-06T01:52:06.531Z,98915.81
2023-05-06T01:54:32.914Z,98922.19
2023-05-06T01:57:00.174Z,98930.72
2023-05-06T01:59:27.326Z,98920.16
2023-05-06T02:01:54.411Z,98919.34
2023-05-06T02:04:21.113Z,98906.34
2023-05-06T02:06:47.574Z,98919.50
2023-05-06T02:09:13.976Z,98912.16
2023-05-06T02:11:40.443Z,98912.84
2023-05-06T02:14:06.782Z,98899.69
2023-05-06T02:16:33.584Z,98902.22
2023-05-06T02:19:00.323Z,98902.72
2023-05-06T02:21:26.698Z,98902.03
2023-05-06T02:23:53.102Z,98895.28
2023-05-06T02:26:19.977Z,98906.75
2023-05-06T02:28:46.429Z,98901.38
2023-05-06T02:31:12.919Z,98896.31
2023-05-06T02:33:39.376Z,98900.66
2023-05-06T02:36:05.727Z,98903.53
2023-05-06T02:38:32.142Z,98905.00
2023-05-06T02:40:58.535Z,98906.66
2023-05-06T02:43:24.977Z,98899.16
2023-05-06T02:45:51.411Z,98902.81
2023-05-06T02:48:19.167Z,98910.38
2023-05-06T02:50:45.714Z,98909.13
2023-05-06T02:53:12.234Z,98907.47
2023-05-06T02:55:38.616Z,98910.00
2023-05-06T02:58:05.009Z,98916.81
2023-05-06T03:00:31.400Z,98911.38
2023-05-06T03:02:58.306Z,98913.78
2023-05-06T03:05:24.781Z,98910.13
2023-05-06T03:07:51.449Z,98907.28
2023-05-06T03:10:17.877Z,98915.19
2023-05-06T03:12:44.255Z,98914.19
2023-05-06T03:15:10.897Z,98916.28
2023-05-06T03:17:38.253Z,98924.00
2023-05-06T03:20:04.692Z,98916.88
2023-05-06T03:22:32.123Z,98912.75
2023-05-06T03:24:58.492Z,98915.41
2023-05-06T03:27:24.912Z,98923.13
2023-05-06T03:29:51.415Z,98918.63
2023-05-06T03:32:18.769Z,98913.31
2023-05-06T03:34:45.199Z,98919.19
2023-05-06T03:37:11.580Z,98914.16
2023-05-06T03:39:37.967Z,98917.28
2023-05-06T03:42:07.161Z,98915.34
2023-05-06T03:44:35.539Z,98924.91
2023-05-06T03:47:01.902Z,98920.41
2023-05-06T03:49:28.261Z,98921.22
2023-05-06T03:51:54.688Z,98921.91
2023-05-06T03:54:21.010Z,98928.69
2023-05-06T03:56:47.484Z,98921.50
2023-05-06T03:59:14.096Z,98930.44
2023-05-06T04:01:40.587Z,98937.16
2023-05-06T04:04:07.227Z,98932.88
2023-05-06T04:06:34.727Z,98940.34
2023-05-06T04:09:01.133Z,98938.34
2023-05-06T04:11:29.151Z,98940.72
2023-05-06T04:13:56.766Z,98946.72
2023-05-06T04:16:23.271Z,98946.69
2023-05-06T04:18:49.698Z,98946.84
2023-05-06T04:21:16.164Z,98958.78
2023-05-06T04:23:42.530Z,98955.81
2023-05-06T04:26:09.087Z,98955.81
2023-05-06T04:28:35.597Z,98951.19
2023-05-06T04:31:02.022Z,98959.03
2023-05-06T04:33:28.444Z,98961.44
2023-05-06T04:35:54.908Z,98969.97
2023-05-06T04:38:21.348Z,98966.75
2023-05-06T04:40:47.738Z,98963.22
2023-05-06T04:43:14.153Z,98963.16
2023-05-06T04:45:40.579Z,98967.63
2023-05-06T04:48:07.686Z,98971.38
2023-05-06T04:50:34.227Z,98981.50
2023-05-06T04:53:00.655Z,98979.66
2023-05-06T04:55:27.073Z,98979.50
2023-05-06T04:57:53.497Z,98984.13
2023-05-06T05:00:20.012Z,98984.56
2023-05-06T05:02:46.514Z,98991.03
2023-05-06T05:05:12.983Z,98990.50
2023-05-06T05:07:39.373Z,98996.81
2023-05-06T05:10:05.765Z,98996.09
2023-05-06T05:12:32.269Z,98991.34
2023-05-06T05:14:58.718Z,99006.66
2023-05-06T05:17:25.083Z,98998.03
2023-05-06T05:19:51.500Z,98997.63
2023-05-06T05:22:17.903Z,98994.72
2023-05-06T05:24:44.352Z,98997.03
2023-05-06T05:27:10.714Z,98992.81
2023-05-06T05:29:37.531Z,98987.53
2023-05-06T05:32:03.924Z,98990.78
2023-05-06T05:34:30.294Z,98985.97
2023-05-06T05:36:56.635Z,98995.47
2023-05-06T05:39:23.114Z,98992.41
2023-05-06T05:41:49.492Z,98999.88
2023-05-06T05:44:15.971Z,99000.44
2023-05-06T05:46:42.527Z,99007.19
2023-05-06T05:49:08.999Z,99010.91
2023-05-06T05:51:35.590Z,99012.72
2023-05-06T05:54:02.031Z,99006.16
2023-05-06T05:56:28.416Z,99015.13
2023-05-06T05:58:54.812Z,99013.44
2023-05-06T06:01:22.228Z,99017.09
2023-05-06T06:03:48.900Z,99014.84
2023-05-06T06:06:15.766Z,99016.53
2023-05-06T06:08:42.190Z,99013.47
2023-05-06T06:11:08.806Z,99015.69
2023-05-06T06:13:35.212Z,99019.66
2023-05-06T06:16:01.860Z,99009.00
2023-05-06T06:18:28.285Z,99016.16
2023-05-06T06:20:54.713Z,99019.59
2023-05-06T06:23:21.157Z,99025.28
2023-05-06T06:25:47.768Z,99018.91
2023-05-06T06:28:14.312Z,99017.56
2023-05-06T06:30:40.718Z,99015.53
2023-05-06T06:33:07.165Z,99016.78
2023-05-06T06:35:33.634Z,99022.63
2023-05-06T06:38:00.423Z,99020.13
2023-05-06T06:40:26.864Z,99018.19
2023-05-06T06:42:53.372Z,99017.63
2023-05-06T06:45:19.811Z,99025.19
2023-05-06T06:47:46.530Z,99019.56
2023-05-06T06:50:13.087Z,99026.81
2023-05-06T06:52:39.500Z,99031.09
2023-05-06T06:55:05.914Z,99029.41
2023-05-06T06:57:32.373Z,99027.72
2023-05-06T06:59:58.869Z,99028.84
2023-05-06T07:02:25.291Z,99029.16
2023-05-06T07:04:52.136Z,99031.41
2023-05-06T07:07:18.579Z,99027.22
2023-05-06T07:09:45.264Z,99024.66
2023-05-06T07:12:12.007Z,99026.22
2023-05-06T07:14:38.411Z,99028.19
2023-05-06T07:17:05.065Z,99028.88
2023-05-06T07:19:31.501Z,99031.00
2023-05-06T07:21:57.911Z,99031.69
2023-05-06T07:24:24.275Z,99025.50
2023-05-06T07:26:50.688Z,99022.28
2023-05-06T07:29:17.108Z,99027.66
2023-05-06T07:31:43.492Z,99030.75
2023-05-06T07:34:10.059Z,99019.19
2023-05-06T07:36:38.604Z,99020.34
2023-05-06T07:39:06.364Z,99019.56
2023-05-06T07:41:32.882Z,99016.03
2023-05-06T07:43:59.259Z,99016.03
2023-05-06T07:46:25.734Z,99016.72
2023-05-06T07:48:52.192Z,99016.19
2023-05-06T07:51:18.679Z,99016.88
2023-05-06T07:53:45.285Z,99012.81
2023-05-06T07:56:11.792Z,99015.59
2023-05-06T07:58:38.127Z,99011.19
2023-05-06T08:01:05.543Z,99014.25
2023-05-06T08:03:32.193Z,99014.78
2023-05-06T08:05:58.657Z,99016.50
2023-05-06T08:08:25.101Z,99014.91
2023-05-06T08:10:51.546Z,99018.94
2023-05-06T08:13:18.051Z,99012.50
2023-05-06T08:15:44.647Z,99020.19
2023-05-06T08:18:21.697Z,99010.06
2023-05-06T08:20:49.050Z,99015.72
2023-05-06T08:23:15.461Z,99012.44
2023-05-06T08:25:42.032Z,99022.06
2023-05-06T08:28:08.429Z,99019.16
2023-05-06T08:30:35.069Z,99022.06
2023-05-06T08:33:01.900Z,99024.28
2023-05-06T08:35:28.501Z,99032.91
2023-05-06T08:37:55.516Z,99021.38
2023-05-06T08:40:22.462Z,99026.44
2023-05-06T08:42:48.922Z,99023.50
2023-05-06T08:45:15.296Z,99026.94
2023-05-06T08:47:41.745Z,99026.09
2023-05-06T08:50:08.155Z,99039.44
2023-05-06T08:52:34.609Z,99031.13
2023-05-06T08:55:01.561Z,99033.16
2023-05-06T08:57:28.576Z,99034.19
2023-05-06T08:59:54.974Z,99031.53
2023-05-06T09:02:21.492Z,99035.94
2023-05-06T09:04:47.909Z,99023.66
2023-05-06T09:07:14.292Z,99028.06
2023-05-06T09:09:40.788Z,99030.56
2023-05-06T09:12:07.222Z,99026.31
2023-05-06T09:14:33.586Z,99038.59
2023-05-06T09:17:00.089Z,99026.59
2023-05-06T09:19:26.568Z,99033.91
2023-05-06T09:21:53.019Z,99037.81
2023-05-06T09:24:19.597Z,99033.00
2023-05-06T09:26:46.083Z,99032.63
2023-05-06T09:29:12.641Z,99024.28
2023-05-06T09:31:39.077Z,99020.38
2023-05-06T09:34:05.509Z,99022.19
2023-05-06T09:36:31.872Z,99015.13
2023-05-06T09:38:58.420Z,99016.53
2023-05-06T09:41:24.937Z,99020.28
2023-05-06T09:43:51.521Z,99014.50
2023-05-06T09:46:18.117Z,99015.91
2023-05-06T09:48:44.647Z,99017.81
2023-05-06T09:51:11.036Z,99019.34
2023-05-06T09:53:39.063Z,99012.69
2023-05-06T09:56:05.469Z,99018.38
2023-05-06T09:58:31.949Z,99012.69
2023-05-06T10:00:58.314Z,99007.97
2023-05-06T10:03:24.892Z,99010.19
2023-05-06T10:05:51.576Z,99007.88
2023-05-06T10:08:18.025Z,99014.47
2023-05-06T10:10:44.473Z,99010.09
2023-05-06T10:13:10.901Z,99005.59
2023-05-06T10:15:37.325Z,98999.59
2023-05-06T10:18:04.045Z,99001.16
2023-05-06T10:20:30.568Z,99005.66
2023-05-06T10:22:58.044Z,99006.56
2023-05-06T10:25:24.737Z,99002.38
2023-05-06T10:27:52.501Z,98991.16
2023-05-06T10:30:19.349Z,98985.78
2023-05-06T10:32:45.763Z,98991.28
2023-05-06T10:35:12.435Z,98994.41
2023-05-06T10:37:39.363Z,98980.03
2023-05-06T10:40:05.723Z,98978.72
2023-05-06T10:42:32.097Z,98981.50
2023-05-06T10:44:58.484Z,98976.59
2023-05-06T10:47:25.089Z,98974.84
2023-05-06T10:49:51.608Z,98967.97
2023-05-06T10:52:17.988Z,98966.03
2023-05-06T10:54:44.649Z,98960.50
2023-05-06T10:57:11.001Z,98961.91
2023-05-06T10:59:37.381Z,98961.31
2023-05-06T11:02:03.873Z,98956.78
2023-05-06T11:04:30.361Z,98956.09
2023-05-06T11:06:56.820Z,98937.97
2023-05-06T11:09:23.244Z,98944.06
2023-05-06T11:11:49.673Z,98948.09
2023-05-06T11:14:16.101Z,98947.75
2023-05-06T11:16:42.545Z,98946.59
2023-05-06T11:19:08.943Z,98948.19
2023-05-06T11:21:35.318Z,98960.69
2023-05-06T11:24:01.689Z,98962.16
2023-05-06T11:26:28.273Z,98956.22
2023-05-06T11:28:54.776Z,98958.25
2023-05-06T11:31:21.324Z,98952.81
2023-05-06T11:33:47.838Z,98952.88
2023-05-06T11:36:14.158Z,98958.41
2023-05-06T11:38:40.636Z,98954.91
2023-05-06T11:41:06.973Z,98958.44
2023-05-06T11:43:33.395Z,98948.97
2023-05-06T11:45:59.970Z,98945.09
2023-05-06T11:48:26.687Z,98946.59
2023-05-06T11:50:53.091Z,98951.22
2023-05-06T11:53:19.452Z,98967.81
2023-05-06T11:55:45.890Z,98971.41
2023-05-06T11:58:12.278Z,98973.84
2023-05-06T12:00:38.651Z,98966.41
2023-05-06T12:03:05.204Z,98970.19
2023-05-06T12:05:31.522Z,98970.94
2023-05-06T12:07:58.145Z,98968.97
2023-05-06T12:10:24.523Z,98986.84
2023-05-06T12:12:50.966Z,98988.69
2023-05-06T12:15:17.307Z,98987.31
2023-05-06T12:17:43.759Z,98995.66
2023-05-06T12:20:10.254Z,98990.22
2023-05-06T12:22:36.801Z,98994.03
2023-05-06T12:25:03.616Z,98979.94
2023-05-06T12:27:30.098Z,98991.25
2023-05-06T12:29:56.559Z,98988.56
2023-05-06T12:32:22.916Z,98979.47
2023-05-06T12:34:49.356Z,98972.88
2023-05-06T12:37:15.735Z,98969.88
2023-05-06T12:39:42.270Z,98957.81
2023-05-06T12:42:08.654Z,98960.25
2023-05-06T12:44:35.067Z,98953.16
2023-05-06T12:47:01.429Z,98945.13
2023-05-06T12:49:27.742Z,98940.50
2023-05-06T12:51:54.170Z,98946.66
2023-05-06T12:54:20.529Z,98941.88
2023-05-06T12:56:48.977Z,98940.88
2023-05-06T12:59:15.529Z,98938.34
2023-05-06T13:01:42.364Z,98927.44
2023-05-06T13:04:08.803Z,98928.31
2023-05-06T13:06:35.201Z,98926.44
2023-05-06T13:09:01.590Z,98928.22
2023-05-06T13:11:28.049Z,98926.00
2023-05-06T13:13:54.530Z,98926.13
2023-05-06T13:16:21.100Z,98914.41
2023-05-06T13:18:47.707Z,98915.44
2023-05-06T13:21:14.239Z,98919.13
2023-05-06T13:23:40.685Z,98914.25
2023-05-06T13:26:07.078Z,98906.03
2023-05-06T13:28:33.575Z,98900.84
2023-05-06T13:30:59.972Z,98898.16
2023-05-06T13:33:26.550Z,98906.63
2023-05-06T13:35:54.218Z,98894.50
2023-05-06T13:38:21.608Z,98899.44
2023-05-06T13:40:47.989Z,98889.16
2023-05-06T13:43:14.429Z,98894.81
2023-05-06T13:45:41.333Z,98889.44
2023-05-06T13:48:07.717Z,98890.41
2023-05-06T13:50:34.177Z,98910.19
2023-05-06T13:53:00.582Z,98909.22
2023-05-06T13:55:26.910Z,98937.47
2023-05-06T13:57:53.316Z,98963.59
2023-05-06T14:00:19.833Z,98969.81
2023-05-06T14:02:46.342Z,98962.59
2023-05-06T14:05:13.287Z,98954.41
2023-05-06T14:07:40.629Z,98961.31
2023-05-06T14:10:07.066Z,98926.03
2023-05-06T14:12:33.560Z,98929.00
2023-05-06T14:15:00.066Z,98929.44
2023-05-06T14:17:26.527Z,98925.59
2023-05-06T14:19:53.460Z,98944.03
2023-05-06T14:22:19.990Z,98954.75
2023-05-06T14:24:46.423Z,98963.09
2023-05-06T14:27:14.030Z,98975.03
2023-05-06T14:29:40.408Z,98980.47
2023-05-06T14:32:07.541Z,98973.56
2023-05-06T14:34:34.071Z,98973.28
2023-05-06T14:37:00.482Z,98973.41
2023-05-06T14:39:27.835Z,98970.06
2023-05-06T14:41:54.242Z,98960.38
2023-05-06T14:44:20.643Z,98969.25
2023-05-06T14:46:46.986Z,98978.91
2023-05-06T14:49:13.441Z,98980.41
2023-05-06T14:51:40.126Z,98974.63
2023-05-06T14:54:06.628Z,98971.00
2023-05-06T14:56:33.043Z,98962.00
2023-05-06T14:59:00.306Z,98970.00
2023-05-06T15:01:29.869Z,98971.00
2023-05-06T15:03:56.473Z,98974.22
2023-05-06T15:06:22.911Z,98966.88
2023-05-06T15:08:49.480Z,98963.94
2023-05-06T15:11:15.841Z,98957.69
2023-05-06T15:13:42.274Z,98959.50
2023-05-06T15:16:11.090Z,98960.16
2023-05-06T15:18:38.029Z,98969.00
2023-05-06T15:21:04.544Z,98965.19
2023-05-06T15:23:30.980Z,98968.75
2023-05-06T15:25:57.429Z,98958.88
2023-05-06T15:28:24.671Z,98963.41
2023-05-06T15:30:51.322Z,98959.72
2023-05-06T15:33:17.741Z,98961.06
2023-05-06T15:35:44.092Z,98959.72
2023-05-06T15:38:10.706Z,98956.34
2023-05-06T15:40:37.424Z,98957.84
2023-05-06T15:43:03.779Z,98949.47
2023-05-06T15:45:30.230Z,98949.63
2023-05-06T15:47:56.671Z,98960.69
2023-05-06T15:50:33.243Z,98955.63
2023-05-06T15:53:00.527Z,98959.84
2023-05-06T15:55:27.053Z,98959.03
2023-05-06T15:57:53.536Z,98958.69
2023-05-06T16:00:20.291Z,98957.03
2023-05-06T16:02:46.863Z,98955.00
2023-05-06T16:05:13.368Z,98955.34
2023-05-06T16:07:39.766Z,98958.38
2023-05-06T16:10:06.474Z,98955.00
2023-05-06T16:12:32.882Z,98953.66
2023-05-06T16:14:59.295Z,98951.66
2023-05-06T16:17:25.711Z,98954.84
2023-05-06T16:19:52.152Z,98947.28
2023-05-06T16:22:18.636Z,98949.13
2023-05-06T16:24:45.332Z,98948.63
2023-05-06T16:27:11.711Z,98945.59
2023-05-06T16:29:38.130Z,98940.19
2023-05-06T16:32:04.815Z,98950.94
2023-05-06T16:34:31.579Z,98949.56
2023-05-06T16:36:57.956Z,98948.22
2023-05-06T16:39:25.263Z,98949.72
2023-05-06T16:41:51.853Z,98952.22
2023-05-06T16:44:18.303Z,98954.25
2023-05-06T16:46:44.816Z,98950.56
2023-05-06T16:49:11.237Z,98949.72
2023-05-06T16:51:37.744Z,98948.38
2023-05-06T16:54:05.060Z,98947.53
2023-05-06T16:56:44.150Z,98942.50
2023-05-06T16:59:16.223Z,98941.13
2023-05-06T17:01:42.806Z,98941.13
2023-05-06T17:04:09.638Z,98938.78
2023-05-06T17:06:36.313Z,98946.84
2023-05-06T17:09:02.861Z,98952.16
2023-05-06T17:11:29.262Z,98958.84
2023-05-06T17:13:57.878Z,98955.81
2023-05-06T17:16:24.806Z,98954.28
2023-05-06T17:18:51.601Z,98955.81
2023-05-06T17:21:18.162Z,98952.81
2023-05-06T17:23:44.644Z,98943.81
2023-05-06T17:26:11.331Z,98948.78
2023-05-06T17:28:38.244Z,98947.09
2023-05-06T17:31:05.316Z,98947.28
2023-05-06T17:33:32.231Z,98951.81
2023-05-06T17:36:00.431Z,98955.13
2023-05-06T17:38:27.489Z,98949.41
2023-05-06T17:40:56.665Z,98955.09
2023-05-06T17:43:23.687Z,98948.06
2023-05-06T17:45:50.708Z,98947.38
2023-05-06T17:48:18.182Z,98955.19
2023-05-06T17:50:45.952Z,98961.13
2023-05-06T17:53:12.960Z,98963.53
2023-05-06T17:55:40.040Z,98953.97
2023-05-06T17:58:08.079Z,98962.19
2023-05-06T18:00:35.208Z,98966.34
2023-05-06T18:03:02.307Z,98967.50
2023-05-06T18:05:29.881Z,98971.41
2023-05-06T18:07:57.206Z,98988.09
2023-05-06T18:10:24.285Z,98990.47
2023-05-06T18:12:51.260Z,98985.47
2023-05-06T18:15:18.364Z,98987.91
2023-05-06T18:17:47.982Z,98975.91
2023-05-06T18:20:15.239Z,98978.50
2023-05-06T18:22:43.410Z,98984.53
2023-05-06T18:25:11.019Z,98991.28
2023-05-06T18:27:38.856Z,98979.66
2023-05-06T18:30:07.331Z,98985.78
2023-05-06T18:32:34.682Z,98989.44
2023-05-06T18:35:04.036Z,98976.75
2023-05-06T18:37:31.036Z,98985.00
2023-05-06T18:39:57.991Z,98989.13
2023-05-06T18:42:33.323Z,98998.53
2023-05-06T18:45:00.949Z,99000.16
2023-05-06T18:47:28.009Z,98997.09
2023-05-06T18:49:57.824Z,98998.31
2023-05-06T18:52:25.937Z,98991.53
2023-05-06T18:54:53.088Z,99001.47
2023-05-06T18:57:20.236Z,99007.88
2023-05-06T18:59:47.434Z,99011.09
2023-05-06T19:02:14.607Z,99014.88
2023-05-06T19:04:41.887Z,99026.09
2023-05-06T19:07:08.924Z,99026.16
2023-05-06T19:09:36.346Z,99036.28
2023-05-06T19:12:04.484Z,99034.75
2023-05-06T19:14:32.563Z,99048.00
2023-05-06T19:16:59.997Z,99057.19
2023-05-06T19:19:27.622Z,99055.84
2023-05-06T19:21:54.642Z,99050.25
2023-05-06T19:24:21.930Z,99045.19
2023-05-06T19:26:51.689Z,99047.00
2023-05-06T19:29:18.792Z,99039.34
2023-05-06T19:31:45.838Z,99039.75
2023-05-06T19:34:14.929Z,99037.09
2023-05-06T19:36:44.056Z,99039.44
2023-05-06T19:39:11.605Z,99050.63
2023-05-06T19:41:39.034Z,99051.91
2023-05-06T19:44:06.489Z,99053.75
2023-05-06T19:46:33.620Z,99049.00
2023-05-06T19:49:00.854Z,99040.75
2023-05-06T19:51:28.200Z,99049.16
2023-05-06T19:53:56.261Z,99048.56
2023-05-06T19:56:23.465Z,99052.75
2023-05-06T19:58:51.694Z,99049.50
2023-05-06T20:01:18.902Z,99056.31
2023-05-06T20:03:46.160Z,99043.59
2023-05-06T20:06:16.544Z,99040.56
2023-05-06T20:08:44.117Z,99042.53
2023-05-06T20:11:14.475Z,99030.75
2023-05-06T20:13:41.513Z,99033.94
2023-05-06T20:16:08.569Z,99036.66
2023-05-06T20:18:36.029Z,99033.00
2023-05-06T20:21:03.141Z,99033.53
2023-05-06T20:23:30.272Z,99031.94
2023-05-06T20:25:57.270Z,99036.19
2023-05-06T20:28:24.882Z,99036.72
2023-05-06T20:30:52.802Z,99033.13
2023-05-06T20:33:19.883Z,99037.03
2023-05-06T20:35:49.498Z,99031.13
2023-05-06T20:38:16.443Z,99027.59
2023-05-06T20:40:44.427Z,99028.28
2023-05-06T20:43:11.419Z,99030.81
2023-05-06T20:45:38.136Z,99025.19
2023-05-06T20:48:04.863Z,99030.97
2023-05-06T20:50:31.422Z,99025.81
2023-05-06T20:52:57.890Z,99031.25
2023-05-06T20:55:24.490Z,99026.94
2023-05-06T20:57:51.157Z,99029.16
2023-05-06T21:00:17.918Z,99032.84
2023-05-06T21:02:44.407Z,99037.31
2023-05-06T21:05:11.242Z,99044.38
2023-05-06T21:07:37.921Z,99048.47
2023-05-06T21:10:04.764Z,99039.31
2023-05-06T21:12:31.133Z,99036.03
2023-05-06T21:14:57.529Z,99038.91
2023-05-06T21:17:25.050Z,99031.44
2023-05-06T21:19:51.456Z,99034.53
2023-05-06T21:22:20.753Z,99037.19
2023-05-06T21:24:47.248Z,99028.75
2023-05-06T21:27:15.757Z,99032.56
2023-05-06T21:29:42.176Z,99030.44
2023-05-06T21:32:08.728Z,99026.91
2023-05-06T21:34:35.427Z,99038.63
2023-05-06T21:37:01.836Z,99026.38
2023-05-06T21:39:28.281Z,99034.25
2023-05-06T21:41:54.695Z,99037.09
2023-05-06T21:44:21.203Z,99039.34
2023-05-06T21:46:47.840Z,99039.75
2023-05-06T21:49:14.374Z,99036.22
2023-05-06T21:51:40.760Z,99042.69
2023-05-06T21:54:09.644Z,99044.38
2023-05-06T21:56:40.647Z,99046.34
2023-05-06T21:59:07.021Z,99043.84
2023-05-06T22:01:33.846Z,99039.47
2023-05-06T22:04:00.488Z,99049.72
2023-05-06T22:06:29.583Z,99049.44
2023-05-06T22:08:56.008Z,99042.56
2023-05-06T22:11:22.768Z,99045.25
2023-05-06T22:13:49.197Z,99042.72
2023-05-06T22:16:15.647Z,99041.13
2023-05-06T22:18:42.392Z,99041.88
2023-05-06T22:21:08.839Z,99038.47
2023-05-06T22:23:36.291Z,99035.63
2023-05-06T22:26:02.738Z,99039.72
2023-05-06T22:28:29.364Z,99041.69
2023-05-06T22:30:55.788Z,99039.84
2023-05-06T22:33:22.191Z,99048.69
2023-05-06T22:35:48.634Z,99042.22
2023-05-06T22:38:15.085Z,99037.88
2023-05-06T22:40:41.548Z,99036.19
2023-05-06T22:43:08.105Z,99029.16
2023-05-06T22:45:34.747Z,99032.81
2023-05-06T22:48:01.638Z,99039.44
2023-05-06T22:50:27.995Z,99040.69
2023-05-06T22:52:54.716Z,99033.72
2023-05-06T22:55:21.093Z,99036.50
2023-05-06T22:57:47.754Z,99037.56
2023-05-06T23:00:14.192Z,99027.88
2023-05-06T23:02:40.752Z,99028.50
2023-05-06T23:05:07.203Z,99025.06
2023-05-06T23:07:35.340Z,99028.00
2023-05-06T23:10:01.702Z,99025.91
2023-05-06T23:12:28.217Z,99029.97
2023-05-06T23:14:54.730Z,99028.00
2023-05-06T23:17:21.140Z,99028.84
2023-05-06T23:19:47.534Z,99034.75
2023-05-06T23:22:13.929Z,99031.38
2023-05-06T23:24:41.270Z,99031.53
2023-05-06T23:27:07.788Z,99026.47
2023-05-06T23:29:34.294Z,99026.59
2023-05-06T23:32:01.104Z,99028.28
2023-05-06T23:34:27.493Z,99027.44
2023-05-06T23:36:53.984Z,99031.09
2023-05-06T23:39:20.344Z,99019.72
2023-05-06T23:41:47.337Z,99023.50
2023-05-06T23:44:13.753Z,99023.50
2023-05-06T23:46:40.194Z,99020.28
2023-05-06T23:49:06.707Z,99019.44
2023-05-06T23:51:33.146Z,99024.19
2023-05-06T23:54:00.324Z,99018.13
2023-05-06T23:56:26.771Z,99022.91
2023-05-06T23:58:53.282Z,99025.13
